Archival Weather

Rochelle Muni/Koritz Fld

Rochelle, Illinois (KRPJ)

Report from: Sunday, February 5, 2023 7:35 AM CST
Current time: Tuesday, July 16, 2024 10:27 AM CDT

Current weather – Weather history – Daily summaries
Weather forecast

Temperature-2.5°C (27.5°F)
Wind chill-8.1°C (17.4°F)
Dew point-3.0°C (26.6°F)
Winds 10 kts (5.1 m/s, 11.5 mph) West-Southwest (240°)
Visibility10 mi. (16.1 km)
Clouds Sky clear
Altimeter29.85 in.Hg (1011 mB)
Relative humidity96 %
Density altitude-1,993 ft. (-607 m)
Remarks Fully automated report
Automated weather observing station with precipitation discriminator
Lightning detection system not operating
Flight conditions Visual Meteorological Conditions
Raw dataKRPJ 051335Z AUTO 24010KT 10SM CLR M02/M03 A2985 RMK AO2 T10251030 TSNO
An error has occurred. This application may no longer respond until reloaded. Reload 🗙